Terminal Aerodrome Forecast
Issued by NWS

Home | Current Version | Previous Version | Text Only | Print | Product List | Glossary On
Versions: 1 2 3 4 5 6 7 8 9 10 11 12 13 14 15 16 17
000
FTUS44 KLZK 251500 AAA
TAFLLQ
TAF AMD
KLLQ 251521Z 2515/2612 18007KT P6SM OVC015
     FM251800 19012KT P6SM VCTS BKN025 OVC050CB
     FM252100 18012KT P6SM VCTS BKN050CB
      TEMPO 2602/2606 VRB20G45KT 2SM TSRA BR OVC015CB=

USA.gov is the U.S. government's official web portal to all federal, state and local government web resources and services.